sensor_id;sensor_type;location;lat;lon;timestamp;P1;durP1;ratioP1;P2;durP2;ratioP2
13366;SDS011;6752;52.612;13.630;2023-04-16T00:01:59;27.05;;;21.30;;
13366;SDS011;6752;52.612;13.630;2023-04-16T00:07:01;30.98;;;24.42;;
13366;SDS011;6752;52.612;13.630;2023-04-16T00:12:05;29.65;;;23.35;;
13366;SDS011;6752;52.612;13.630;2023-04-16T00:17:06;26.75;;;23.55;;
13366;SDS011;6752;52.612;13.630;2023-04-16T00:22:08;30.27;;;24.87;;
13366;SDS011;6752;52.612;13.630;2023-04-16T00:27:11;30.58;;;25.00;;
13366;SDS011;6752;52.612;13.630;2023-04-16T00:32:13;32.35;;;25.55;;
13366;SDS011;6752;52.612;13.630;2023-04-16T00:37:16;32.53;;;25.48;;
13366;SDS011;6752;52.612;13.630;2023-04-16T00:42:18;28.50;;;24.30;;
13366;SDS011;6752;52.612;13.630;2023-04-16T00:47:20;33.47;;;27.00;;
13366;SDS011;6752;52.612;13.630;2023-04-16T00:52:23;29.73;;;26.67;;
13366;SDS011;6752;52.612;13.630;2023-04-16T00:57:25;30.60;;;25.40;;
13366;SDS011;6752;52.612;13.630;2023-04-16T01:02:27;28.27;;;25.35;;
13366;SDS011;6752;52.612;13.630;2023-04-16T01:07:30;30.52;;;25.30;;
13366;SDS011;6752;52.612;13.630;2023-04-16T01:12:32;29.65;;;24.60;;
13366;SDS011;6752;52.612;13.630;2023-04-16T01:17:35;29.10;;;24.08;;
13366;SDS011;6752;52.612;13.630;2023-04-16T01:22:37;34.35;;;26.62;;
13366;SDS011;6752;52.612;13.630;2023-04-16T01:27:39;32.55;;;26.50;;
13366;SDS011;6752;52.612;13.630;2023-04-16T01:32:42;32.50;;;27.45;;
13366;SDS011;6752;52.612;13.630;2023-04-16T01:37:44;40.42;;;30.62;;
13366;SDS011;6752;52.612;13.630;2023-04-16T01:42:46;36.83;;;29.90;;
13366;SDS011;6752;52.612;13.630;2023-04-16T01:47:49;35.03;;;28.60;;
13366;SDS011;6752;52.612;13.630;2023-04-16T01:52:51;36.25;;;28.65;;
13366;SDS011;6752;52.612;13.630;2023-04-16T01:57:53;32.88;;;28.35;;
13366;SDS011;6752;52.612;13.630;2023-04-16T02:02:56;30.02;;;26.62;;
13366;SDS011;6752;52.612;13.630;2023-04-16T02:07:58;35.30;;;29.10;;
13366;SDS011;6752;52.612;13.630;2023-04-16T02:13:01;34.53;;;29.65;;
13366;SDS011;6752;52.612;13.630;2023-04-16T02:18:03;36.10;;;28.30;;
13366;SDS011;6752;52.612;13.630;2023-04-16T02:43:13;48.90;;;36.95;;
13366;SDS011;6752;52.612;13.630;2023-04-16T02:48:15;48.85;;;38.72;;
13366;SDS011;6752;52.612;13.630;2023-04-16T02:53:18;48.80;;;39.58;;
13366;SDS011;6752;52.612;13.630;2023-04-16T02:58:20;52.30;;;38.63;;
13366;SDS011;6752;52.612;13.630;2023-04-16T03:03:22;51.85;;;40.53;;
13366;SDS011;6752;52.612;13.630;2023-04-16T03:08:25;50.05;;;40.92;;
13366;SDS011;6752;52.612;13.630;2023-04-16T03:13:27;51.53;;;40.22;;
13366;SDS011;6752;52.612;13.630;2023-04-16T03:18:29;52.58;;;41.60;;
13366;SDS011;6752;52.612;13.630;2023-04-16T03:23:32;51.90;;;41.85;;
13366;SDS011;6752;52.612;13.630;2023-04-16T03:28:34;49.37;;;42.67;;
13366;SDS011;6752;52.612;13.630;2023-04-16T03:33:37;49.45;;;37.42;;
13366;SDS011;6752;52.612;13.630;2023-04-16T03:38:39;57.80;;;39.33;;
13366;SDS011;6752;52.612;13.630;2023-04-16T03:43:41;54.40;;;40.20;;
13366;SDS011;6752;52.612;13.630;2023-04-16T03:48:44;57.60;;;40.80;;
13366;SDS011;6752;52.612;13.630;2023-04-16T03:53:46;55.85;;;41.13;;
13366;SDS011;6752;52.612;13.630;2023-04-16T03:58:48;59.25;;;40.75;;
13366;SDS011;6752;52.612;13.630;2023-04-16T04:03:51;58.72;;;42.65;;
13366;SDS011;6752;52.612;13.630;2023-04-16T04:08:53;56.13;;;40.38;;
13366;SDS011;6752;52.612;13.630;2023-04-16T04:13:55;49.60;;;40.83;;
13366;SDS011;6752;52.612;13.630;2023-04-16T04:18:58;45.95;;;34.88;;
13366;SDS011;6752;52.612;13.630;2023-04-16T04:24:00;57.60;;;39.10;;
13366;SDS011;6752;52.612;13.630;2023-04-16T04:29:03;59.25;;;40.15;;
13366;SDS011;6752;52.612;13.630;2023-04-16T04:34:05;55.35;;;39.05;;
13366;SDS011;6752;52.612;13.630;2023-04-16T04:39:07;57.22;;;40.28;;
13366;SDS011;6752;52.612;13.630;2023-04-16T04:44:10;63.95;;;44.03;;
13366;SDS011;6752;52.612;13.630;2023-04-16T04:49:12;57.90;;;41.58;;
13366;SDS011;6752;52.612;13.630;2023-04-16T04:54:14;61.78;;;42.22;;
13366;SDS011;6752;52.612;13.630;2023-04-16T04:59:17;57.70;;;40.63;;
13366;SDS011;6752;52.612;13.630;2023-04-16T05:04:19;61.30;;;44.13;;
13366;SDS011;6752;52.612;13.630;2023-04-16T05:09:21;53.73;;;43.57;;
13366;SDS011;6752;52.612;13.630;2023-04-16T05:14:24;53.80;;;38.78;;
13366;SDS011;6752;52.612;13.630;2023-04-16T05:19:26;61.50;;;41.47;;
13366;SDS011;6752;52.612;13.630;2023-04-16T05:24:29;71.32;;;43.50;;
13366;SDS011;6752;52.612;13.630;2023-04-16T05:29:31;59.75;;;38.85;;
13366;SDS011;6752;52.612;13.630;2023-04-16T05:34:33;59.42;;;42.13;;
13366;SDS011;6752;52.612;13.630;2023-04-16T05:39:36;49.83;;;39.97;;
13366;SDS011;6752;52.612;13.630;2023-04-16T05:44:39;49.33;;;38.70;;
13366;SDS011;6752;52.612;13.630;2023-04-16T05:49:40;47.10;;;33.28;;
13366;SDS011;6752;52.612;13.630;2023-04-16T05:54:43;52.65;;;34.45;;
13366;SDS011;6752;52.612;13.630;2023-04-16T05:59:45;62.90;;;37.92;;
13366;SDS011;6752;52.612;13.630;2023-04-16T06:04:48;54.20;;;39.05;;
13366;SDS011;6752;52.612;13.630;2023-04-16T06:09:50;54.60;;;38.15;;
13366;SDS011;6752;52.612;13.630;2023-04-16T06:14:52;49.70;;;36.53;;
13366;SDS011;6752;52.612;13.630;2023-04-16T06:19:55;59.45;;;38.95;;
13366;SDS011;6752;52.612;13.630;2023-04-16T06:24:57;47.17;;;40.55;;
13366;SDS011;6752;52.612;13.630;2023-04-16T06:35:01;50.90;;;34.58;;
13366;SDS011;6752;52.612;13.630;2023-04-16T06:40:04;48.10;;;34.15;;
13366;SDS011;6752;52.612;13.630;2023-04-16T06:45:06;44.80;;;32.90;;
13366;SDS011;6752;52.612;13.630;2023-04-16T06:50:09;45.35;;;32.83;;
13366;SDS011;6752;52.612;13.630;2023-04-16T06:55:11;46.13;;;34.03;;
13366;SDS011;6752;52.612;13.630;2023-04-16T07:00:13;47.67;;;33.17;;
13366;SDS011;6752;52.612;13.630;2023-04-16T07:05:16;42.67;;;35.43;;
13366;SDS011;6752;52.612;13.630;2023-04-16T07:10:18;42.90;;;31.42;;
13366;SDS011;6752;52.612;13.630;2023-04-16T07:15:20;42.15;;;32.22;;
13366;SDS011;6752;52.612;13.630;2023-04-16T07:20:23;45.75;;;31.75;;
13366;SDS011;6752;52.612;13.630;2023-04-16T07:25:25;47.40;;;34.03;;
13366;SDS011;6752;52.612;13.630;2023-04-16T07:30:28;41.50;;;35.03;;
13366;SDS011;6752;52.612;13.630;2023-04-16T07:35:30;43.22;;;29.55;;
13366;SDS011;6752;52.612;13.630;2023-04-16T07:40:32;42.15;;;31.12;;
13366;SDS011;6752;52.612;13.630;2023-04-16T07:45:35;45.47;;;32.90;;
13366;SDS011;6752;52.612;13.630;2023-04-16T07:50:38;44.17;;;32.38;;
13366;SDS011;6752;52.612;13.630;2023-04-16T07:55:40;47.88;;;32.25;;
13366;SDS011;6752;52.612;13.630;2023-04-16T08:00:43;49.08;;;34.25;;
13366;SDS011;6752;52.612;13.630;2023-04-16T08:05:45;41.72;;;30.98;;
13366;SDS011;6752;52.612;13.630;2023-04-16T08:10:48;44.55;;;33.63;;
13366;SDS011;6752;52.612;13.630;2023-04-16T08:15:50;47.60;;;32.85;;
13366;SDS011;6752;52.612;13.630;2023-04-16T08:20:52;49.00;;;33.47;;
13366;SDS011;6752;52.612;13.630;2023-04-16T08:25:55;40.85;;;31.87;;
13366;SDS011;6752;52.612;13.630;2023-04-16T08:30:57;44.50;;;33.25;;
13366;SDS011;6752;52.612;13.630;2023-04-16T08:35:59;39.15;;;30.52;;
13366;SDS011;6752;52.612;13.630;2023-04-16T08:41:02;40.45;;;30.80;;
13366;SDS011;6752;52.612;13.630;2023-04-16T08:46:04;41.03;;;29.33;;
13366;SDS011;6752;52.612;13.630;2023-04-16T08:51:08;32.70;;;28.63;;
13366;SDS011;6752;52.612;13.630;2023-04-16T08:56:10;29.07;;;25.97;;
13366;SDS011;6752;52.612;13.630;2023-04-16T09:01:12;29.35;;;23.00;;
13366;SDS011;6752;52.612;13.630;2023-04-16T09:06:15;30.55;;;24.30;;
13366;SDS011;6752;52.612;13.630;2023-04-16T09:11:17;31.15;;;25.62;;
13366;SDS011;6752;52.612;13.630;2023-04-16T09:16:19;29.40;;;26.10;;
13366;SDS011;6752;52.612;13.630;2023-04-16T09:26:24;35.58;;;27.10;;
13366;SDS011;6752;52.612;13.630;2023-04-16T09:31:26;32.75;;;26.23;;
13366;SDS011;6752;52.612;13.630;2023-04-16T09:36:28;36.72;;;27.90;;
13366;SDS011;6752;52.612;13.630;2023-04-16T09:41:31;33.15;;;26.90;;
13366;SDS011;6752;52.612;13.630;2023-04-16T09:46:34;32.50;;;27.52;;
13366;SDS011;6752;52.612;13.630;2023-04-16T09:51:36;34.45;;;29.12;;
13366;SDS011;6752;52.612;13.630;2023-04-16T09:56:39;29.67;;;26.67;;
13366;SDS011;6752;52.612;13.630;2023-04-16T10:01:44;28.92;;;25.02;;
13366;SDS011;6752;52.612;13.630;2023-04-16T10:07:05;29.42;;;24.95;;
13366;SDS011;6752;52.612;13.630;2023-04-16T10:17:09;30.37;;;24.30;;
13366;SDS011;6752;52.612;13.630;2023-04-16T10:22:11;28.08;;;25.17;;
13366;SDS011;6752;52.612;13.630;2023-04-16T10:27:14;24.70;;;21.48;;
13366;SDS011;6752;52.612;13.630;2023-04-16T10:32:16;25.90;;;20.55;;
13366;SDS011;6752;52.612;13.630;2023-04-16T10:37:18;23.98;;;19.80;;
13366;SDS011;6752;52.612;13.630;2023-04-16T10:42:21;25.35;;;19.60;;
13366;SDS011;6752;52.612;13.630;2023-04-16T10:47:23;22.42;;;20.02;;
13366;SDS011;6752;52.612;13.630;2023-04-16T10:52:26;20.27;;;18.00;;
13366;SDS011;6752;52.612;13.630;2023-04-16T10:57:29;19.20;;;16.70;;
13366;SDS011;6752;52.612;13.630;2023-04-16T11:02:31;18.23;;;16.25;;
13366;SDS011;6752;52.612;13.630;2023-04-16T11:07:34;17.62;;;14.75;;
13366;SDS011;6752;52.612;13.630;2023-04-16T11:12:36;16.92;;;14.87;;
13366;SDS011;6752;52.612;13.630;2023-04-16T11:17:44;17.33;;;15.52;;
13366;SDS011;6752;52.612;13.630;2023-04-16T11:22:56;21.10;;;16.73;;
13366;SDS011;6752;52.612;13.630;2023-04-16T11:27:54;18.42;;;16.52;;
13366;SDS011;6752;52.612;13.630;2023-04-16T11:32:56;19.50;;;17.23;;
13366;SDS011;6752;52.612;13.630;2023-04-16T11:37:59;18.85;;;16.42;;
13366;SDS011;6752;52.612;13.630;2023-04-16T11:43:01;21.12;;;18.52;;
13366;SDS011;6752;52.612;13.630;2023-04-16T11:53:05;22.55;;;20.10;;
13366;SDS011;6752;52.612;13.630;2023-04-16T11:58:11;23.27;;;20.77;;
13366;SDS011;6752;52.612;13.630;2023-04-16T12:03:13;23.38;;;19.27;;
13366;SDS011;6752;52.612;13.630;2023-04-16T12:08:27;24.90;;;18.48;;
13366;SDS011;6752;52.612;13.630;2023-04-16T12:13:18;20.08;;;17.37;;
13366;SDS011;6752;52.612;13.630;2023-04-16T12:18:23;20.30;;;17.62;;
13366;SDS011;6752;52.612;13.630;2023-04-16T12:23:26;24.25;;;16.92;;
13366;SDS011;6752;52.612;13.630;2023-04-16T12:28:33;20.23;;;15.93;;
13366;SDS011;6752;52.612;13.630;2023-04-16T12:33:35;18.37;;;15.60;;
13366;SDS011;6752;52.612;13.630;2023-04-16T12:38:37;17.35;;;15.50;;
13366;SDS011;6752;52.612;13.630;2023-04-16T12:43:40;18.83;;;15.02;;
13366;SDS011;6752;52.612;13.630;2023-04-16T12:48:42;16.10;;;14.40;;
13366;SDS011;6752;52.612;13.630;2023-04-16T12:53:44;16.37;;;14.45;;
13366;SDS011;6752;52.612;13.630;2023-04-16T12:58:47;18.58;;;15.43;;
13366;SDS011;6752;52.612;13.630;2023-04-16T13:03:49;20.08;;;16.50;;
13366;SDS011;6752;52.612;13.630;2023-04-16T13:08:52;20.45;;;16.83;;
13366;SDS011;6752;52.612;13.630;2023-04-16T13:13:54;18.92;;;16.40;;
13366;SDS011;6752;52.612;13.630;2023-04-16T13:23:58;19.52;;;16.83;;
13366;SDS011;6752;52.612;13.630;2023-04-16T13:29:01;19.92;;;15.98;;
13366;SDS011;6752;52.612;13.630;2023-04-16T13:34:03;24.33;;;16.55;;
13366;SDS011;6752;52.612;13.630;2023-04-16T13:39:05;21.85;;;16.77;;
13366;SDS011;6752;52.612;13.630;2023-04-16T13:44:08;18.20;;;15.88;;
13366;SDS011;6752;52.612;13.630;2023-04-16T13:49:10;17.98;;;14.32;;
13366;SDS011;6752;52.612;13.630;2023-04-16T13:54:12;18.20;;;14.52;;
13366;SDS011;6752;52.612;13.630;2023-04-16T13:59:15;17.30;;;12.98;;
13366;SDS011;6752;52.612;13.630;2023-04-16T14:04:17;15.32;;;13.52;;
13366;SDS011;6752;52.612;13.630;2023-04-16T14:09:20;15.27;;;12.75;;
13366;SDS011;6752;52.612;13.630;2023-04-16T14:14:22;14.60;;;12.80;;
13366;SDS011;6752;52.612;13.630;2023-04-16T14:19:24;17.67;;;13.85;;
13366;SDS011;6752;52.612;13.630;2023-04-16T14:24:27;17.02;;;12.02;;
13366;SDS011;6752;52.612;13.630;2023-04-16T14:29:31;16.62;;;13.00;;
13366;SDS011;6752;52.612;13.630;2023-04-16T14:34:33;16.12;;;14.18;;
13366;SDS011;6752;52.612;13.630;2023-04-16T14:39:36;15.63;;;14.02;;
13366;SDS011;6752;52.612;13.630;2023-04-16T14:44:38;15.15;;;13.55;;
13366;SDS011;6752;52.612;13.630;2023-04-16T14:49:40;16.30;;;13.50;;
13366;SDS011;6752;52.612;13.630;2023-04-16T14:54:43;18.83;;;14.20;;
13366;SDS011;6752;52.612;13.630;2023-04-16T14:59:45;16.23;;;12.82;;
13366;SDS011;6752;52.612;13.630;2023-04-16T15:04:48;17.37;;;13.80;;
13366;SDS011;6752;52.612;13.630;2023-04-16T15:09:50;21.37;;;15.32;;
13366;SDS011;6752;52.612;13.630;2023-04-16T15:14:53;19.02;;;15.60;;
13366;SDS011;6752;52.612;13.630;2023-04-16T15:19:56;18.15;;;12.68;;
13366;SDS011;6752;52.612;13.630;2023-04-16T15:24:58;15.18;;;13.57;;
13366;SDS011;6752;52.612;13.630;2023-04-16T15:40:04;17.20;;;14.43;;
13366;SDS011;6752;52.612;13.630;2023-04-16T15:45:07;17.50;;;14.70;;
13366;SDS011;6752;52.612;13.630;2023-04-16T15:50:09;15.43;;;13.23;;
13366;SDS011;6752;52.612;13.630;2023-04-16T15:55:12;16.42;;;13.07;;
13366;SDS011;6752;52.612;13.630;2023-04-16T16:00:14;16.10;;;13.85;;
13366;SDS011;6752;52.612;13.630;2023-04-16T16:05:16;18.17;;;14.02;;
13366;SDS011;6752;52.612;13.630;2023-04-16T16:10:19;20.52;;;16.25;;
13366;SDS011;6752;52.612;13.630;2023-04-16T16:15:21;16.08;;;13.73;;
13366;SDS011;6752;52.612;13.630;2023-04-16T16:20:24;18.17;;;13.60;;
13366;SDS011;6752;52.612;13.630;2023-04-16T16:25:26;13.62;;;11.57;;
13366;SDS011;6752;52.612;13.630;2023-04-16T16:30:28;16.17;;;11.32;;
13366;SDS011;6752;52.612;13.630;2023-04-16T16:35:30;14.80;;;12.52;;
13366;SDS011;6752;52.612;13.630;2023-04-16T16:40:33;17.83;;;13.02;;
13366;SDS011;6752;52.612;13.630;2023-04-16T16:45:35;14.27;;;12.40;;
13366;SDS011;6752;52.612;13.630;2023-04-16T16:50:39;15.10;;;13.48;;
13366;SDS011;6752;52.612;13.630;2023-04-16T16:55:41;14.60;;;12.50;;
13366;SDS011;6752;52.612;13.630;2023-04-16T17:00:43;15.43;;;12.35;;
13366;SDS011;6752;52.612;13.630;2023-04-16T17:05:47;17.25;;;12.73;;
13366;SDS011;6752;52.612;13.630;2023-04-16T17:10:49;16.00;;;12.70;;
13366;SDS011;6752;52.612;13.630;2023-04-16T17:15:51;19.42;;;13.15;;
13366;SDS011;6752;52.612;13.630;2023-04-16T17:20:54;19.05;;;14.68;;
13366;SDS011;6752;52.612;13.630;2023-04-16T17:25:57;20.75;;;15.40;;
13366;SDS011;6752;52.612;13.630;2023-04-16T17:36:00;20.05;;;16.33;;
13366;SDS011;6752;52.612;13.630;2023-04-16T17:41:03;19.62;;;15.18;;
13366;SDS011;6752;52.612;13.630;2023-04-16T17:46:08;18.55;;;14.00;;
13366;SDS011;6752;52.612;13.630;2023-04-16T17:51:11;16.95;;;13.80;;
13366;SDS011;6752;52.612;13.630;2023-04-16T17:56:13;15.45;;;13.85;;
13366;SDS011;6752;52.612;13.630;2023-04-16T18:01:15;14.43;;;12.57;;
13366;SDS011;6752;52.612;13.630;2023-04-16T18:06:17;16.15;;;12.73;;
13366;SDS011;6752;52.612;13.630;2023-04-16T18:11:20;18.65;;;14.38;;
13366;SDS011;6752;52.612;13.630;2023-04-16T18:16:22;18.80;;;14.87;;
13366;SDS011;6752;52.612;13.630;2023-04-16T18:21:24;19.33;;;15.52;;
13366;SDS011;6752;52.612;13.630;2023-04-16T18:26:28;15.73;;;13.30;;
13366;SDS011;6752;52.612;13.630;2023-04-16T18:31:30;14.65;;;12.68;;
13366;SDS011;6752;52.612;13.630;2023-04-16T18:36:32;17.40;;;12.40;;
13366;SDS011;6752;52.612;13.630;2023-04-16T18:41:35;16.40;;;13.20;;
13366;SDS011;6752;52.612;13.630;2023-04-16T18:46:37;16.50;;;13.50;;
13366;SDS011;6752;52.612;13.630;2023-04-16T18:56:41;18.37;;;14.52;;
13366;SDS011;6752;52.612;13.630;2023-04-16T19:01:44;17.33;;;14.93;;
13366;SDS011;6752;52.612;13.630;2023-04-16T19:06:46;19.37;;;15.55;;
13366;SDS011;6752;52.612;13.630;2023-04-16T19:11:48;20.02;;;14.38;;
13366;SDS011;6752;52.612;13.630;2023-04-16T19:16:51;22.13;;;16.83;;
13366;SDS011;6752;52.612;13.630;2023-04-16T19:21:53;20.35;;;15.25;;
13366;SDS011;6752;52.612;13.630;2023-04-16T19:26:56;20.65;;;16.27;;
13366;SDS011;6752;52.612;13.630;2023-04-16T19:31:58;19.73;;;16.92;;
13366;SDS011;6752;52.612;13.630;2023-04-16T19:37:00;23.30;;;18.15;;
13366;SDS011;6752;52.612;13.630;2023-04-16T19:42:03;22.65;;;17.80;;
13366;SDS011;6752;52.612;13.630;2023-04-16T19:47:05;21.37;;;17.25;;
13366;SDS011;6752;52.612;13.630;2023-04-16T19:52:08;23.67;;;18.55;;
13366;SDS011;6752;52.612;13.630;2023-04-16T19:57:13;23.38;;;18.70;;
13366;SDS011;6752;52.612;13.630;2023-04-16T20:02:15;24.95;;;19.08;;
13366;SDS011;6752;52.612;13.630;2023-04-16T20:07:18;27.83;;;20.08;;
13366;SDS011;6752;52.612;13.630;2023-04-16T20:12:20;24.83;;;20.42;;
13366;SDS011;6752;52.612;13.630;2023-04-16T20:17:22;25.30;;;20.17;;
13366;SDS011;6752;52.612;13.630;2023-04-16T20:22:25;25.33;;;20.27;;
13366;SDS011;6752;52.612;13.630;2023-04-16T20:27:27;25.52;;;20.00;;
13366;SDS011;6752;52.612;13.630;2023-04-16T20:32:29;26.45;;;19.27;;
13366;SDS011;6752;52.612;13.630;2023-04-16T20:42:33;23.77;;;18.60;;
13366;SDS011;6752;52.612;13.630;2023-04-16T20:47:36;27.73;;;20.62;;
13366;SDS011;6752;52.612;13.630;2023-04-16T20:52:38;21.40;;;19.10;;
13366;SDS011;6752;52.612;13.630;2023-04-16T20:57:41;21.25;;;17.25;;
13366;SDS011;6752;52.612;13.630;2023-04-16T21:02:43;22.98;;;18.25;;
13366;SDS011;6752;52.612;13.630;2023-04-16T21:07:45;23.13;;;19.03;;
13366;SDS011;6752;52.612;13.630;2023-04-16T21:12:48;23.08;;;18.25;;
13366;SDS011;6752;52.612;13.630;2023-04-16T21:17:50;22.35;;;18.83;;
13366;SDS011;6752;52.612;13.630;2023-04-16T21:22:52;22.60;;;18.45;;
13366;SDS011;6752;52.612;13.630;2023-04-16T21:27:55;26.40;;;19.98;;
13366;SDS011;6752;52.612;13.630;2023-04-16T21:32:57;21.13;;;18.40;;
13366;SDS011;6752;52.612;13.630;2023-04-16T21:37:59;24.52;;;17.37;;
13366;SDS011;6752;52.612;13.630;2023-04-16T21:43:02;25.17;;;19.12;;
13366;SDS011;6752;52.612;13.630;2023-04-16T21:48:04;23.77;;;18.98;;
13366;SDS011;6752;52.612;13.630;2023-04-16T21:53:07;23.52;;;18.12;;
13366;SDS011;6752;52.612;13.630;2023-04-16T21:58:09;21.13;;;18.83;;
13366;SDS011;6752;52.612;13.630;2023-04-16T22:08:13;24.55;;;18.50;;
13366;SDS011;6752;52.612;13.630;2023-04-16T22:13:16;25.30;;;19.35;;
13366;SDS011;6752;52.612;13.630;2023-04-16T22:18:18;26.83;;;21.50;;
13366;SDS011;6752;52.612;13.630;2023-04-16T22:23:21;27.02;;;20.08;;
13366;SDS011;6752;52.612;13.630;2023-04-16T22:28:23;23.85;;;19.12;;
13366;SDS011;6752;52.612;13.630;2023-04-16T22:33:27;27.55;;;21.05;;
13366;SDS011;6752;52.612;13.630;2023-04-16T22:38:27;26.12;;;19.33;;
13366;SDS011;6752;52.612;13.630;2023-04-16T22:43:30;28.23;;;21.67;;
13366;SDS011;6752;52.612;13.630;2023-04-16T22:48:32;27.05;;;22.10;;
13366;SDS011;6752;52.612;13.630;2023-04-16T22:53:34;30.75;;;21.95;;
13366;SDS011;6752;52.612;13.630;2023-04-16T22:58:37;30.75;;;21.85;;
13366;SDS011;6752;52.612;13.630;2023-04-16T23:03:39;30.05;;;22.30;;
13366;SDS011;6752;52.612;13.630;2023-04-16T23:08:42;26.10;;;20.85;;
13366;SDS011;6752;52.612;13.630;2023-04-16T23:13:44;27.42;;;22.37;;
13366;SDS011;6752;52.612;13.630;2023-04-16T23:18:46;29.40;;;23.20;;
13366;SDS011;6752;52.612;13.630;2023-04-16T23:23:49;29.65;;;22.85;;
13366;SDS011;6752;52.612;13.630;2023-04-16T23:28:51;29.50;;;22.62;;
13366;SDS011;6752;52.612;13.630;2023-04-16T23:33:53;30.08;;;24.63;;
13366;SDS011;6752;52.612;13.630;2023-04-16T23:38:56;31.37;;;24.60;;
13366;SDS011;6752;52.612;13.630;2023-04-16T23:43:58;27.33;;;22.90;;
13366;SDS011;6752;52.612;13.630;2023-04-16T23:49:01;29.02;;;22.20;;
13366;SDS011;6752;52.612;13.630;2023-04-16T23:54:03;26.50;;;22.33;;
13366;SDS011;6752;52.612;13.630;2023-04-16T23:59:05;26.70;;;21.00;;
